Terminal Aerodrome Forecast
Issued by NWS

Home | Current Version | Previous Version | Graphics & Text | Print | Product List | Glossary On
Versions: 1 2 3 4 5 6 7 8 9 10 11 12 13 14 15 16 17 18 19 20 21 22 23 24 25 26 27 28 29 30 31 32 33 34 35 36 37
000
FTUS43 KGRB 181500 AAA
TAFRHI
TAF AMD
KRHI 181524Z 1815/1912 01012G16KT P6SM BKN017 BKN025
      TEMPO 1815/1819 SCT017 BKN025
     FM181900 34005KT P6SM SCT025 SCT050
     FM182300 33003KT P6SM SKC=

USA.gov is the U.S. government's official web portal to all federal, state and local government web resources and services.